createdAt,value
2022-10-17T00:00:44.063Z,95687.75
2022-10-17T00:03:10.709Z,95689.91
2022-10-17T00:05:42.803Z,95690.59
2022-10-17T00:08:10.870Z,95688.84
2022-10-17T00:10:37.594Z,95700.00
2022-10-17T00:13:04.621Z,95692.25
2022-10-17T00:15:31.282Z,95688.34
2022-10-17T00:17:58.005Z,95693.09
2022-10-17T00:20:24.886Z,95696.69
2022-10-17T00:22:52.299Z,95698.28
2022-10-17T00:25:19.292Z,95701.59
2022-10-17T00:27:45.915Z,95690.75
2022-10-17T00:30:16.574Z,95704.53
2022-10-17T00:32:43.232Z,95703.03
2022-10-17T00:35:10.346Z,95707.22
2022-10-17T00:37:37.569Z,95705.47
2022-10-17T00:40:06.462Z,95706.66
2022-10-17T00:42:33.146Z,95706.97
2022-10-17T00:45:20.777Z,95702.59
2022-10-17T00:47:58.652Z,95704.16
2022-10-17T00:50:25.955Z,95709.31
2022-10-17T00:52:53.371Z,95706.75
2022-10-17T00:55:34.779Z,95704.84
2022-10-17T00:58:04.514Z,95707.88
2022-10-17T01:00:31.375Z,95706.94
2022-10-17T01:02:58.151Z,95706.66
2022-10-17T01:05:24.928Z,95705.69
2022-10-17T01:07:53.510Z,95704.56
2022-10-17T01:13:13.707Z,95705.69
2022-10-17T01:15:52.707Z,95702.03
2022-10-17T01:18:49.263Z,95703.97
2022-10-17T01:21:42.949Z,95700.41
2022-10-17T01:24:28.201Z,95703.03
2022-10-17T01:27:22.273Z,95688.66
2022-10-17T01:29:52.455Z,95691.81
2022-10-17T01:32:34.020Z,95693.97
2022-10-17T01:35:12.162Z,95695.97
2022-10-17T01:40:26.985Z,95689.59
2022-10-17T01:43:07.046Z,95698.00
2022-10-17T01:45:42.818Z,95700.59
2022-10-17T01:48:16.250Z,95693.69
2022-10-17T01:50:48.318Z,95697.03
2022-10-17T01:53:28.232Z,95698.34
2022-10-17T01:55:59.396Z,95693.88
2022-10-17T01:58:33.774Z,95696.13
2022-10-17T02:01:05.061Z,95702.25
2022-10-17T02:03:34.508Z,95700.56
2022-10-17T02:06:01.890Z,95703.75
2022-10-17T02:08:40.754Z,95696.19
2022-10-17T02:11:14.685Z,95707.34
2022-10-17T02:14:02.670Z,95705.72
2022-10-17T02:16:53.753Z,95713.34
2022-10-17T02:19:55.934Z,95703.75
2022-10-17T02:22:41.237Z,95698.47
2022-10-17T02:25:56.246Z,95699.28
2022-10-17T02:28:33.238Z,95695.06
2022-10-17T02:31:24.646Z,95694.16
2022-10-17T02:34:01.214Z,95694.16
2022-10-17T02:36:34.655Z,95694.03
2022-10-17T02:39:05.222Z,95692.50
2022-10-17T02:41:33.800Z,95690.91
2022-10-17T02:44:03.504Z,95694.25
2022-10-17T02:46:32.805Z,95695.34
2022-10-17T02:49:10.354Z,95692.00
2022-10-17T02:51:55.497Z,95700.47
2022-10-17T02:54:42.375Z,95710.25
2022-10-17T02:57:21.468Z,95709.66
2022-10-17T02:59:50.118Z,95712.03
2022-10-17T03:02:17.512Z,95705.03
2022-10-17T03:04:46.509Z,95703.81
2022-10-17T03:07:13.360Z,95704.19
2022-10-17T03:09:39.928Z,95704.19
2022-10-17T03:12:06.580Z,95711.63
2022-10-17T03:14:33.922Z,95708.50
2022-10-17T03:17:00.889Z,95721.94
2022-10-17T03:19:27.501Z,95711.47
2022-10-17T03:21:54.148Z,95710.88
2022-10-17T03:24:21.499Z,95712.63
2022-10-17T03:26:48.099Z,95711.47
2022-10-17T03:29:14.760Z,95714.63
2022-10-17T03:31:41.655Z,95717.88
2022-10-17T03:34:09.063Z,95718.09
2022-10-17T03:36:35.685Z,95720.09
2022-10-17T03:39:02.301Z,95721.28
2022-10-17T03:41:29.215Z,95718.00
2022-10-17T03:43:55.809Z,95726.88
2022-10-17T03:46:23.548Z,95728.66
2022-10-17T03:48:50.182Z,95728.53
2022-10-17T03:51:16.846Z,95730.63
2022-10-17T03:53:49.094Z,95736.34
2022-10-17T03:56:21.535Z,95739.03
2022-10-17T03:58:59.052Z,95732.97
2022-10-17T04:01:27.309Z,95731.31
2022-10-17T04:03:55.929Z,95736.94
2022-10-17T04:06:22.931Z,95737.06
2022-10-17T04:08:50.291Z,95742.31
2022-10-17T04:11:22.603Z,95741.38
2022-10-17T04:13:54.594Z,95744.28
2022-10-17T04:16:22.406Z,95745.13
2022-10-17T04:18:59.799Z,95753.41
2022-10-17T04:21:29.892Z,95749.69
2022-10-17T04:24:00.931Z,95748.97
2022-10-17T04:26:59.826Z,95756.56
2022-10-17T04:29:29.947Z,95748.84
2022-10-17T04:32:05.186Z,95748.28
2022-10-17T04:34:39.047Z,95749.69
2022-10-17T04:37:05.630Z,95753.50
2022-10-17T04:39:33.209Z,95758.19
2022-10-17T04:41:59.783Z,95761.56
2022-10-17T04:44:26.389Z,95755.38
2022-10-17T04:46:52.991Z,95752.09
2022-10-17T04:49:19.961Z,95761.31
2022-10-17T04:51:49.342Z,95766.44
2022-10-17T04:54:39.047Z,95765.28
2022-10-17T04:57:08.748Z,95763.78
2022-10-17T04:59:35.377Z,95766.03
2022-10-17T05:02:17.097Z,95762.63
2022-10-17T05:04:45.070Z,95768.00
2022-10-17T05:07:12.445Z,95753.50
2022-10-17T05:09:58.748Z,95762.50
2022-10-17T05:12:25.955Z,95757.72
2022-10-17T05:14:53.504Z,95765.78
2022-10-17T05:17:21.266Z,95769.94
2022-10-17T05:19:47.849Z,95767.38
2022-10-17T05:22:14.434Z,95769.47
2022-10-17T05:24:41.818Z,95772.72
2022-10-17T05:27:09.283Z,95778.50
2022-10-17T05:29:35.913Z,95781.31
2022-10-17T05:32:13.247Z,95781.53
2022-10-17T05:34:39.921Z,95788.19
2022-10-17T05:37:06.654Z,95789.00
2022-10-17T05:39:34.001Z,95793.44
2022-10-17T05:42:00.823Z,95791.56
2022-10-17T05:44:27.957Z,95794.03
2022-10-17T05:46:57.987Z,95793.13
2022-10-17T05:49:39.760Z,95809.09
2022-10-17T05:52:11.636Z,95803.63
2022-10-17T05:54:52.593Z,95807.41
2022-10-17T05:57:19.919Z,95805.19
2022-10-17T05:59:47.317Z,95816.56
2022-10-17T06:02:18.374Z,95815.03
2022-10-17T06:04:49.233Z,95812.72
2022-10-17T06:07:17.592Z,95817.88
2022-10-17T06:12:12.469Z,95824.94
2022-10-17T06:14:39.148Z,95816.84
2022-10-17T06:17:07.824Z,95813.69
2022-10-17T06:19:36.894Z,95809.38
2022-10-17T06:22:03.716Z,95819.28
2022-10-17T06:24:31.395Z,95816.72
2022-10-17T06:26:58.153Z,95819.28
2022-10-17T06:29:26.207Z,95819.16
2022-10-17T06:31:53.064Z,95823.50
2022-10-17T06:34:20.248Z,95826.44
2022-10-17T06:36:47.601Z,95834.41
2022-10-17T06:39:14.664Z,95833.47
2022-10-17T06:41:47.232Z,95841.06
2022-10-17T06:44:17.896Z,95845.91
2022-10-17T06:47:02.981Z,95845.88
2022-10-17T06:49:29.844Z,95845.16
2022-10-17T06:52:00.657Z,95847.59
2022-10-17T06:54:47.997Z,95851.66
2022-10-17T06:57:30.197Z,95857.81
2022-10-17T07:00:08.284Z,95860.03
2022-10-17T07:02:43.457Z,95858.38
2022-10-17T07:05:10.550Z,95870.53
2022-10-17T07:07:40.086Z,95877.28
2022-10-17T07:10:09.862Z,95875.91
2022-10-17T07:12:37.431Z,95875.91
2022-10-17T07:15:05.464Z,95874.03
2022-10-17T07:17:32.357Z,95882.72
2022-10-17T07:19:59.276Z,95883.38
2022-10-17T07:22:26.136Z,95887.28
2022-10-17T07:24:56.549Z,95886.94
2022-10-17T07:27:28.298Z,95894.34
2022-10-17T07:29:55.228Z,95899.94
2022-10-17T07:32:34.422Z,95903.63
2022-10-17T07:35:00.993Z,95904.06
2022-10-17T07:37:27.823Z,95910.97
2022-10-17T07:39:56.583Z,95905.19
2022-10-17T07:42:23.643Z,95902.69
2022-10-17T07:44:51.116Z,95911.16
2022-10-17T07:47:18.446Z,95908.00
2022-10-17T07:49:46.820Z,95904.94
2022-10-17T07:52:14.873Z,95911.16
2022-10-17T07:54:41.495Z,95912.78
2022-10-17T07:57:08.506Z,95914.84
2022-10-17T07:59:37.374Z,95917.53
2022-10-17T08:02:04.243Z,95906.47
2022-10-17T08:04:31.083Z,95908.22
2022-10-17T08:07:11.605Z,95907.75
2022-10-17T08:09:44.282Z,95910.34
2022-10-17T08:12:11.209Z,95904.25
2022-10-17T08:14:39.198Z,95907.47
2022-10-17T08:17:05.818Z,95903.91
2022-10-17T08:19:32.837Z,95895.06
2022-10-17T08:21:59.494Z,95890.72
2022-10-17T08:24:26.108Z,95891.72
2022-10-17T08:26:53.400Z,95899.38
2022-10-17T08:29:19.979Z,95909.47
2022-10-17T08:31:48.299Z,95908.31
2022-10-17T08:34:16.587Z,95904.75
2022-10-17T08:36:43.157Z,95906.38
2022-10-17T08:39:09.748Z,95910.69
2022-10-17T08:42:00.813Z,95905.53
2022-10-17T08:44:50.635Z,95909.63
2022-10-17T08:47:28.042Z,95908.38
2022-10-17T08:49:59.716Z,95901.63
2022-10-17T08:53:16.845Z,95898.41
2022-10-17T08:55:48.639Z,95906.28
2022-10-17T08:58:20.937Z,95900.53
2022-10-17T09:01:01.006Z,95897.88
2022-10-17T09:03:52.914Z,95898.78
2022-10-17T09:06:51.169Z,95906.91
2022-10-17T09:09:36.069Z,95906.72
2022-10-17T09:12:29.000Z,95911.03
2022-10-17T09:15:17.555Z,95913.75
2022-10-17T09:17:58.345Z,95917.13
2022-10-17T09:20:51.677Z,95918.84
2022-10-17T09:23:21.075Z,95917.88
2022-10-17T09:25:52.380Z,95914.72
2022-10-17T09:28:27.825Z,95915.06
2022-10-17T09:31:02.053Z,95907.41
2022-10-17T09:33:42.585Z,95902.72
2022-10-17T09:36:21.348Z,95910.00
2022-10-17T09:38:52.469Z,95908.19
2022-10-17T09:41:51.270Z,95909.59
2022-10-17T09:44:22.439Z,95908.09
2022-10-17T09:47:13.898Z,95909.59
2022-10-17T09:49:42.965Z,95910.59
2022-10-17T09:52:30.543Z,95918.19
2022-10-17T09:55:16.161Z,95917.78
2022-10-17T09:58:04.025Z,95924.03
2022-10-17T10:00:32.148Z,95917.84
2022-10-17T10:03:16.135Z,95918.28
2022-10-17T10:05:59.455Z,95923.81
2022-10-17T10:08:42.385Z,95922.94
2022-10-17T10:11:47.716Z,95925.50
2022-10-17T10:14:28.165Z,95921.88
2022-10-17T10:16:55.296Z,95926.31
2022-10-17T10:19:28.155Z,95926.81
2022-10-17T10:21:57.333Z,95920.81
2022-10-17T10:24:30.314Z,95923.06
2022-10-17T10:27:05.891Z,95916.25
2022-10-17T10:29:41.699Z,95913.53
2022-10-17T10:32:33.224Z,95921.34
2022-10-17T10:35:07.952Z,95917.50
2022-10-17T10:37:37.656Z,95919.75
2022-10-17T10:40:16.266Z,95911.91
2022-10-17T10:42:42.937Z,95905.19
2022-10-17T10:45:42.794Z,95918.34
2022-10-17T10:48:36.877Z,95914.38
2022-10-17T10:51:14.604Z,95917.75
2022-10-17T10:53:50.919Z,95917.22
2022-10-17T10:56:26.763Z,95909.91
2022-10-17T10:58:55.763Z,95911.28
2022-10-17T11:01:28.340Z,95909.59
2022-10-17T11:04:07.852Z,95905.56
2022-10-17T11:06:38.932Z,95900.84
2022-10-17T11:09:31.402Z,95911.50
2022-10-17T11:12:25.468Z,95907.69
2022-10-17T11:15:27.523Z,95897.13
2022-10-17T11:18:08.298Z,95894.72
2022-10-17T11:20:51.590Z,95896.31
2022-10-17T11:23:24.768Z,95890.94
2022-10-17T11:25:54.647Z,95902.06
2022-10-17T11:28:23.939Z,95895.94
2022-10-17T11:31:04.473Z,95899.09
2022-10-17T11:34:19.558Z,95895.03
2022-10-17T11:36:50.764Z,95904.91
2022-10-17T11:39:17.341Z,95899.03
2022-10-17T11:41:57.507Z,95894.78
2022-10-17T11:44:32.803Z,95898.59
2022-10-17T11:47:11.633Z,95894.72
2022-10-17T11:49:46.095Z,95898.66
2022-10-17T11:52:55.366Z,95901.28
2022-10-17T11:55:26.556Z,95904.88
2022-10-17T11:58:09.854Z,95899.53
2022-10-17T12:01:16.025Z,95888.59
2022-10-17T12:03:48.684Z,95892.56
2022-10-17T12:06:49.274Z,95896.84
2022-10-17T12:09:24.887Z,95887.28
2022-10-17T12:11:57.157Z,95882.50
2022-10-17T12:14:45.082Z,95877.13
2022-10-17T12:17:32.431Z,95881.22
2022-10-17T12:20:21.549Z,95881.50
2022-10-17T12:23:08.027Z,95876.53
2022-10-17T12:28:25.499Z,95877.34
2022-10-17T12:30:56.520Z,95872.50
2022-10-17T12:33:27.545Z,95876.53
2022-10-17T12:36:17.368Z,95878.13
2022-10-17T12:38:50.128Z,95880.50
2022-10-17T12:41:37.254Z,95877.75
2022-10-17T12:44:12.822Z,95879.50
2022-10-17T12:46:52.404Z,95883.50
2022-10-17T12:49:41.202Z,95877.59
2022-10-17T12:52:34.969Z,95880.91
2022-10-17T12:55:13.436Z,95882.59
2022-10-17T12:57:43.030Z,95871.72
2022-10-17T13:00:15.015Z,95877.00
2022-10-17T13:02:42.231Z,95878.63
2022-10-17T13:05:32.795Z,95881.81
2022-10-17T13:08:02.361Z,95878.34
2022-10-17T13:10:33.432Z,95881.22
2022-10-17T13:13:15.292Z,95879.66
2022-10-17T13:15:49.588Z,95872.22
2022-10-17T13:18:25.880Z,95877.19
2022-10-17T13:21:14.207Z,95877.06
2022-10-17T13:23:40.829Z,95871.09
2022-10-17T13:26:10.472Z,95884.88
2022-10-17T13:28:39.343Z,95886.19
2022-10-17T13:31:06.840Z,95878.06
2022-10-17T13:33:33.736Z,95871.75
2022-10-17T13:36:04.074Z,95865.88
2022-10-17T13:38:34.873Z,95876.16
2022-10-17T13:41:33.769Z,95866.91
2022-10-17T13:43:51.265Z,95870.97
2022-10-17T13:46:39.483Z,95878.34
2022-10-17T13:49:37.000Z,95873.75
2022-10-17T13:52:06.226Z,95880.91
2022-10-17T13:54:44.138Z,95871.56
2022-10-17T13:57:40.017Z,95873.59
2022-10-17T14:00:16.844Z,95876.03
2022-10-17T14:02:43.599Z,95873.88
2022-10-17T14:05:20.169Z,95875.88
2022-10-17T14:10:38.719Z,95877.56
2022-10-17T14:13:08.248Z,95873.34
2022-10-17T14:15:36.690Z,95881.25
2022-10-17T14:18:07.737Z,95877.19
2022-10-17T14:23:37.404Z,95881.63
2022-10-17T14:26:08.689Z,95887.91
2022-10-17T14:28:35.695Z,95878.38
2022-10-17T14:31:14.081Z,95880.16
2022-10-17T14:33:49.742Z,95876.03
2022-10-17T14:36:17.810Z,95881.63
2022-10-17T14:38:47.307Z,95881.81
2022-10-17T14:41:42.026Z,95885.09
2022-10-17T14:44:15.496Z,95890.47
2022-10-17T14:46:50.304Z,95881.34
2022-10-17T14:49:24.956Z,95884.75
2022-10-17T14:52:13.439Z,95897.09
2022-10-17T14:54:46.531Z,95898.97
2022-10-17T14:57:22.075Z,95894.84
2022-10-17T14:59:56.073Z,95894.41
2022-10-17T15:02:28.646Z,95896.13
2022-10-17T15:04:55.839Z,95898.97
2022-10-17T15:07:23.585Z,95901.69
2022-10-17T15:09:51.949Z,95903.97
2022-10-17T15:12:21.752Z,95900.09
2022-10-17T15:14:51.796Z,95905.50
2022-10-17T15:17:26.011Z,95907.84
2022-10-17T15:19:53.918Z,95903.72
2022-10-17T15:22:20.589Z,95904.84
2022-10-17T15:24:47.242Z,95905.34
2022-10-17T15:27:17.716Z,95907.56
2022-10-17T15:29:44.757Z,95916.81
2022-10-17T15:32:11.923Z,95920.88
2022-10-17T15:34:38.713Z,95919.47
2022-10-17T15:37:06.985Z,95917.34
2022-10-17T15:39:33.614Z,95920.47
2022-10-17T15:42:00.314Z,95922.63
2022-10-17T15:44:26.979Z,95929.88
2022-10-17T15:46:55.638Z,95928.84
2022-10-17T15:49:34.681Z,95934.25
2022-10-17T15:52:01.370Z,95932.72
2022-10-17T15:54:27.923Z,95940.03
2022-10-17T15:56:55.577Z,95941.56
2022-10-17T15:59:31.794Z,95938.28
2022-10-17T16:01:58.380Z,95942.38
2022-10-17T16:04:27.215Z,95944.38
2022-10-17T16:06:53.771Z,95944.84
2022-10-17T16:09:20.351Z,95943.63
2022-10-17T16:11:46.977Z,95946.50
2022-10-17T16:14:15.762Z,95949.78
2022-10-17T16:16:42.803Z,95949.13
2022-10-17T16:19:12.572Z,95943.09
2022-10-17T16:21:40.635Z,95950.09
2022-10-17T16:24:12.644Z,95957.50
2022-10-17T16:26:40.231Z,95958.34
2022-10-17T16:29:07.174Z,95961.97
2022-10-17T16:31:35.652Z,95963.38
2022-10-17T16:34:03.766Z,95963.28
2022-10-17T16:36:30.521Z,95964.47
2022-10-17T16:38:57.278Z,95963.16
2022-10-17T16:41:23.799Z,95964.34
2022-10-17T16:43:52.045Z,95968.91
2022-10-17T16:46:19.284Z,95966.13
2022-10-17T16:48:46.602Z,95968.25
2022-10-17T16:51:14.543Z,95973.44
2022-10-17T16:53:44.505Z,95975.09
2022-10-17T16:56:13.497Z,95973.78
2022-10-17T16:58:41.575Z,95975.06
2022-10-17T17:01:19.422Z,95976.84
2022-10-17T17:03:47.099Z,95970.31
2022-10-17T17:06:20.590Z,95977.78
2022-10-17T17:08:47.682Z,95988.03
2022-10-17T17:11:16.292Z,95981.66
2022-10-17T17:13:43.448Z,95984.50
2022-10-17T17:16:11.851Z,95985.84
2022-10-17T17:18:39.336Z,95993.66
2022-10-17T17:21:07.972Z,95998.03
2022-10-17T17:23:37.055Z,95999.97
2022-10-17T17:26:06.808Z,96004.66
2022-10-17T17:28:34.679Z,96002.22
2022-10-17T17:31:01.832Z,96004.31
2022-10-17T17:33:30.158Z,96006.09
2022-10-17T17:36:01.405Z,96018.00
2022-10-17T17:38:33.489Z,96016.09
2022-10-17T17:41:00.587Z,96023.59
2022-10-17T17:43:27.648Z,96022.19
2022-10-17T17:45:54.247Z,96025.47
2022-10-17T17:48:21.288Z,96024.84
2022-10-17T17:50:48.306Z,96029.59
2022-10-17T17:53:16.452Z,96028.94
2022-10-17T17:55:43.042Z,96030.03
2022-10-17T17:58:09.675Z,96028.53
2022-10-17T18:00:36.362Z,96026.88
2022-10-17T18:03:03.096Z,96029.72
2022-10-17T18:05:32.915Z,96028.50
2022-10-17T18:07:59.717Z,96028.09
2022-10-17T18:10:27.990Z,96030.25
2022-10-17T18:12:54.655Z,96029.66
2022-10-17T18:15:21.308Z,96033.56
2022-10-17T18:17:48.124Z,96034.16
2022-10-17T18:20:14.714Z,96040.88
2022-10-17T18:22:41.319Z,96042.16
2022-10-17T18:25:08.342Z,96040.84
2022-10-17T18:27:34.986Z,96048.91
2022-10-17T18:30:01.836Z,96045.78
2022-10-17T18:32:31.400Z,96051.78
2022-10-17T18:34:58.610Z,96045.25
2022-10-17T18:37:25.254Z,96041.41
2022-10-17T18:39:54.059Z,96040.81
2022-10-17T18:42:20.912Z,96037.34
2022-10-17T18:44:47.877Z,96038.84
2022-10-17T18:47:14.480Z,96044.50
2022-10-17T18:49:41.063Z,96046.59
2022-10-17T18:52:07.660Z,96046.22
2022-10-17T18:54:34.702Z,96045.75
2022-10-17T18:57:01.339Z,96049.97
2022-10-17T18:59:27.984Z,96049.69
2022-10-17T19:01:54.632Z,96050.81
2022-10-17T19:04:21.431Z,96041.78
2022-10-17T19:06:48.041Z,96043.59
2022-10-17T19:09:15.183Z,96043.69
2022-10-17T19:11:42.868Z,96043.16
2022-10-17T19:14:14.938Z,96037.22
2022-10-17T19:16:47.667Z,96050.06
2022-10-17T19:19:24.467Z,96042.31
2022-10-17T19:21:51.814Z,96050.47
2022-10-17T19:24:28.072Z,96052.53
2022-10-17T19:26:58.249Z,96043.38
2022-10-17T19:29:27.802Z,96050.47
2022-10-17T19:34:25.946Z,96054.44
2022-10-17T19:36:52.519Z,96054.72
2022-10-17T19:39:20.954Z,96053.06
2022-10-17T19:41:48.476Z,96052.38
2022-10-17T19:44:16.114Z,96049.78
2022-10-17T19:46:46.995Z,96053.59
2022-10-17T19:49:14.547Z,96057.56
2022-10-17T19:51:41.208Z,96060.81
2022-10-17T19:54:10.457Z,96056.44
2022-10-17T19:56:38.110Z,96062.16
2022-10-17T19:59:08.398Z,96050.72
2022-10-17T20:01:38.922Z,96060.41
2022-10-17T20:04:06.956Z,96053.31
2022-10-17T20:06:34.291Z,96060.41
2022-10-17T20:09:01.111Z,96067.31
2022-10-17T20:11:29.445Z,96070.66
2022-10-17T20:13:56.907Z,96073.66
2022-10-17T20:16:29.855Z,96074.59
2022-10-17T20:19:01.645Z,96080.72
2022-10-17T20:21:31.490Z,96081.28
2022-10-17T20:23:59.663Z,96082.13
2022-10-17T20:26:37.509Z,96090.19
2022-10-17T20:29:10.669Z,96086.53
2022-10-17T20:31:37.931Z,96088.97
2022-10-17T20:34:04.522Z,96100.28
2022-10-17T20:36:31.130Z,96096.34
2022-10-17T20:38:59.132Z,96093.66
2022-10-17T20:41:26.352Z,96095.47
2022-10-17T20:43:54.683Z,96086.66
2022-10-17T20:46:36.430Z,96089.97
2022-10-17T20:49:08.476Z,96096.25
2022-10-17T20:51:35.487Z,96098.41
2022-10-17T20:54:02.884Z,96091.75
2022-10-17T20:56:31.322Z,96100.56
2022-10-17T20:59:01.226Z,96097.75
2022-10-17T21:01:29.351Z,96098.59
2022-10-17T21:03:58.842Z,96096.25
2022-10-17T21:06:27.474Z,96092.91
2022-10-17T21:08:55.455Z,96090.88
2022-10-17T21:11:24.263Z,96093.47
2022-10-17T21:13:59.061Z,96096.84
2022-10-17T21:16:27.229Z,96093.06
2022-10-17T21:18:55.147Z,96090.56
2022-10-17T21:21:31.197Z,96089.94
2022-10-17T21:24:00.800Z,96092.75
2022-10-17T21:26:28.413Z,96096.44
2022-10-17T21:28:55.155Z,96093.09
2022-10-17T21:31:27.132Z,96093.22
2022-10-17T21:33:56.243Z,96083.22
2022-10-17T21:36:24.478Z,96091.78
2022-10-17T21:38:52.748Z,96093.31
2022-10-17T21:41:21.394Z,96090.81
2022-10-17T21:43:52.733Z,96087.06
2022-10-17T21:46:20.261Z,96094.38
2022-10-17T21:48:48.211Z,96096.50
2022-10-17T21:51:16.955Z,96090.53
2022-10-17T21:53:43.786Z,96089.97
2022-10-17T21:56:13.438Z,96092.03
2022-10-17T21:58:40.576Z,96085.16
2022-10-17T22:01:13.293Z,96087.94
2022-10-17T22:03:45.690Z,96085.16
2022-10-17T22:06:38.629Z,96085.50
2022-10-17T22:09:04.146Z,96079.38
2022-10-17T22:11:33.065Z,96088.56
2022-10-17T22:14:02.103Z,96088.44
2022-10-17T22:16:29.296Z,96090.66
2022-10-17T22:19:01.706Z,96085.63
2022-10-17T22:21:31.988Z,96079.00
2022-10-17T22:24:01.049Z,96074.84
2022-10-17T22:26:29.477Z,96075.66
2022-10-17T22:28:56.912Z,96081.25
2022-10-17T22:31:24.300Z,96072.72
2022-10-17T22:33:50.965Z,96074.84
2022-10-17T22:36:18.188Z,96078.03
2022-10-17T22:38:44.770Z,96075.88
2022-10-17T22:41:11.350Z,96071.66
2022-10-17T22:43:38.148Z,96076.00
2022-10-17T22:46:06.414Z,96070.25
2022-10-17T22:48:33.077Z,96073.91
2022-10-17T22:51:00.506Z,96068.53
2022-10-17T22:53:27.318Z,96065.47
2022-10-17T22:55:59.423Z,96069.81
2022-10-17T22:58:27.202Z,96063.94
2022-10-17T23:00:54.624Z,96063.38
2022-10-17T23:03:22.936Z,96069.19
2022-10-17T23:05:49.953Z,96062.84
2022-10-17T23:08:18.055Z,96064.88
2022-10-17T23:10:45.345Z,96057.38
2022-10-17T23:13:12.487Z,96059.84
2022-10-17T23:15:39.554Z,96054.09
2022-10-17T23:18:06.439Z,96054.16
2022-10-17T23:20:33.234Z,96050.75
2022-10-17T23:22:59.991Z,96058.75
2022-10-17T23:25:27.124Z,96055.16
2022-10-17T23:27:53.922Z,96053.28
2022-10-17T23:30:20.747Z,96056.00
2022-10-17T23:32:47.345Z,96058.69
2022-10-17T23:35:15.194Z,96058.13
2022-10-17T23:37:42.019Z,96049.22
2022-10-17T23:40:09.308Z,96049.34
2022-10-17T23:42:35.981Z,96049.09
2022-10-17T23:45:03.646Z,96038.31
2022-10-17T23:47:31.371Z,96038.75
2022-10-17T23:49:58.370Z,96038.19
2022-10-17T23:52:25.189Z,96047.22
2022-10-17T23:54:51.743Z,96040.53
2022-10-17T23:57:18.364Z,96041.00
2022-10-17T23:59:45.065Z,96040.69
